createdAt,value
2023-03-05T00:01:56.128Z,82.42
2023-03-05T00:04:23.714Z,82.22
2023-03-05T00:06:50.963Z,82.00
2023-03-05T00:09:18.124Z,80.96
2023-03-05T00:11:45.277Z,81.18
2023-03-05T00:14:12.675Z,81.01
2023-03-05T00:16:40.080Z,80.27
2023-03-05T00:19:07.531Z,80.41
2023-03-05T00:21:38.545Z,80.00
2023-03-05T00:24:13.880Z,78.80
2023-03-05T00:26:41.313Z,78.32
2023-03-05T00:29:09.648Z,79.02
2023-03-05T00:31:38.234Z,78.96
2023-03-05T00:34:09.223Z,79.33
2023-03-05T00:36:40.758Z,79.42
2023-03-05T00:39:08.011Z,78.79
2023-03-05T00:41:35.167Z,79.69
2023-03-05T00:44:02.371Z,81.08
2023-03-05T00:46:29.723Z,82.56
2023-03-05T00:48:57.610Z,82.48
2023-03-05T00:51:25.820Z,82.47
2023-03-05T00:53:53.196Z,82.30
2023-03-05T00:56:20.525Z,82.91
2023-03-05T00:58:47.735Z,83.55
2023-03-05T01:01:14.940Z,84.51
2023-03-05T01:03:42.166Z,83.03
2023-03-05T01:06:12.047Z,82.94
2023-03-05T01:08:39.599Z,82.67
2023-03-05T01:11:07.643Z,83.08
2023-03-05T01:13:35.141Z,83.12
2023-03-05T01:16:04.095Z,82.74
2023-03-05T01:18:31.381Z,82.27
2023-03-05T01:20:58.477Z,82.36
2023-03-05T01:23:25.759Z,83.05
2023-03-05T01:25:58.000Z,82.37
2023-03-05T01:28:25.860Z,83.54
2023-03-05T01:30:53.365Z,83.56
2023-03-05T01:33:20.685Z,83.39
2023-03-05T01:35:49.079Z,83.29
2023-03-05T01:38:16.867Z,83.03
2023-03-05T01:40:44.693Z,82.57
2023-03-05T01:43:12.094Z,83.47
2023-03-05T01:46:00.236Z,83.66
2023-03-05T01:48:27.914Z,83.50
2023-03-05T01:50:55.111Z,83.55
2023-03-05T01:53:22.284Z,83.05
2023-03-05T01:55:49.928Z,81.80
2023-03-05T01:58:18.050Z,81.76
2023-03-05T02:00:48.592Z,80.50
2023-03-05T02:03:16.579Z,79.23
2023-03-05T02:05:44.650Z,78.87
2023-03-05T02:08:17.523Z,78.39
2023-03-05T02:10:51.027Z,81.10
2023-03-05T02:13:23.647Z,81.21
2023-03-05T02:15:53.036Z,82.41
2023-03-05T02:18:21.288Z,82.06
2023-03-05T02:20:55.728Z,81.78
2023-03-05T02:23:29.160Z,81.65
2023-03-05T02:25:56.756Z,82.75
2023-03-05T02:28:37.654Z,84.05
2023-03-05T02:31:16.142Z,84.93
2023-03-05T02:33:44.157Z,84.87
2023-03-05T02:36:12.349Z,84.61
2023-03-05T02:38:40.804Z,84.81
2023-03-05T02:41:09.457Z,85.80
2023-03-05T02:43:37.215Z,86.02
2023-03-05T02:46:05.094Z,86.19
2023-03-05T02:48:32.754Z,85.58
2023-03-05T02:51:01.662Z,85.13
2023-03-05T02:53:28.869Z,85.37
2023-03-05T02:55:56.672Z,85.02
2023-03-05T02:58:23.859Z,85.26
2023-03-05T03:00:51.348Z,84.14
2023-03-05T03:03:18.716Z,84.16
2023-03-05T03:05:45.914Z,83.69
2023-03-05T03:08:12.995Z,83.62
2023-03-05T03:10:40.056Z,85.06
2023-03-05T03:13:07.182Z,85.32
2023-03-05T03:15:34.962Z,85.79
2023-03-05T03:18:02.012Z,85.69
2023-03-05T03:20:29.045Z,85.14
2023-03-05T03:22:56.170Z,86.17
2023-03-05T03:25:23.509Z,85.76
2023-03-05T03:27:52.583Z,86.04
2023-03-05T03:30:19.700Z,85.82
2023-03-05T03:32:48.129Z,86.32
2023-03-05T03:35:15.228Z,86.37
2023-03-05T03:37:42.400Z,86.42
2023-03-05T03:40:11.356Z,85.80
2023-03-05T03:42:38.470Z,85.35
2023-03-05T03:45:06.041Z,85.06
2023-03-05T03:47:33.197Z,84.13
2023-03-05T03:50:00.306Z,84.11
2023-03-05T03:52:27.641Z,84.62
2023-03-05T03:55:01.442Z,85.07
2023-03-05T03:57:30.250Z,85.30
2023-03-05T03:59:57.406Z,85.22
2023-03-05T04:02:24.667Z,85.06
2023-03-05T04:04:52.584Z,84.82
2023-03-05T04:07:20.096Z,85.76
2023-03-05T04:09:47.259Z,85.72
2023-03-05T04:12:18.278Z,85.45
2023-03-05T04:14:47.066Z,85.19
2023-03-05T04:17:14.411Z,84.53
2023-03-05T04:19:42.696Z,84.27
2023-03-05T04:22:12.773Z,84.80
2023-03-05T04:24:40.043Z,85.08
2023-03-05T04:27:07.469Z,84.94
2023-03-05T04:29:35.344Z,84.63
2023-03-05T04:32:02.590Z,84.10
2023-03-05T04:34:29.802Z,84.25
2023-03-05T04:36:57.424Z,84.31
2023-03-05T04:39:25.121Z,83.95
2023-03-05T04:41:52.379Z,82.68
2023-03-05T04:44:19.506Z,82.11
2023-03-05T04:46:46.583Z,81.54
2023-03-05T04:49:13.696Z,81.63
2023-03-05T04:51:40.786Z,81.53
2023-03-05T04:54:08.736Z,82.00
2023-03-05T04:56:35.946Z,81.38
2023-03-05T04:59:03.104Z,81.41
2023-03-05T05:01:30.277Z,80.73
2023-03-05T05:03:57.348Z,79.88
2023-03-05T05:06:24.477Z,79.41
2023-03-05T05:08:51.520Z,79.31
2023-03-05T05:11:18.653Z,78.40
2023-03-05T05:13:45.898Z,77.92
2023-03-05T05:16:13.205Z,77.62
2023-03-05T05:18:40.296Z,78.09
2023-03-05T05:21:09.577Z,78.45
2023-03-05T05:23:36.980Z,78.89
2023-03-05T05:26:05.979Z,78.61
2023-03-05T05:28:33.633Z,78.80
2023-03-05T05:31:01.036Z,79.04
2023-03-05T05:33:28.091Z,78.39
2023-03-05T05:35:55.209Z,79.12
2023-03-05T05:38:22.261Z,78.95
2023-03-05T05:40:49.307Z,79.31
2023-03-05T05:43:16.365Z,78.16
2023-03-05T05:45:43.794Z,77.57
2023-03-05T05:48:11.007Z,77.99
2023-03-05T05:50:39.433Z,78.29
2023-03-05T05:53:06.499Z,77.78
2023-03-05T05:55:33.616Z,77.48
2023-03-05T05:58:00.681Z,76.76
2023-03-05T06:00:27.814Z,76.60
2023-03-05T06:02:55.013Z,76.16
2023-03-05T06:05:22.287Z,76.16
2023-03-05T06:07:49.295Z,74.96
2023-03-05T06:10:16.419Z,73.88
2023-03-05T06:12:43.693Z,73.71
2023-03-05T06:15:11.020Z,73.03
2023-03-05T06:17:38.550Z,73.82
2023-03-05T06:20:07.116Z,72.54
2023-03-05T06:22:39.140Z,72.44
2023-03-05T06:25:10.036Z,71.96
2023-03-05T06:27:37.933Z,72.45
2023-03-05T06:30:06.592Z,73.80
2023-03-05T06:32:33.921Z,75.05
2023-03-05T06:35:01.009Z,77.32
2023-03-05T06:37:28.186Z,77.87
2023-03-05T06:39:55.291Z,76.75
2023-03-05T06:42:22.515Z,76.79
2023-03-05T06:44:49.576Z,75.54
2023-03-05T06:47:16.683Z,76.38
2023-03-05T06:49:43.789Z,76.04
2023-03-05T06:52:12.941Z,75.46
2023-03-05T06:54:40.536Z,75.73
2023-03-05T06:57:07.611Z,75.76
2023-03-05T06:59:34.706Z,75.86
2023-03-05T07:02:01.756Z,76.41
2023-03-05T07:04:28.882Z,75.33
2023-03-05T07:06:56.092Z,75.72
2023-03-05T07:09:23.242Z,75.33
2023-03-05T07:11:50.330Z,73.69
2023-03-05T07:14:17.472Z,74.21
2023-03-05T07:16:44.528Z,73.87
2023-03-05T07:19:11.699Z,74.56
2023-03-05T07:21:40.056Z,74.60
2023-03-05T07:24:09.057Z,74.40
2023-03-05T07:26:36.583Z,74.80
2023-03-05T07:29:04.210Z,73.52
2023-03-05T07:31:32.225Z,72.84
2023-03-05T07:34:01.871Z,72.58
2023-03-05T07:36:30.930Z,72.74
2023-03-05T07:38:58.120Z,72.84
2023-03-05T07:41:25.444Z,71.94
2023-03-05T07:43:54.468Z,71.83
2023-03-05T07:46:25.673Z,70.83
2023-03-05T07:48:54.725Z,71.30
2023-03-05T07:51:23.567Z,72.55
2023-03-05T07:53:52.251Z,71.91
2023-03-05T07:56:31.900Z,72.36
2023-03-05T07:59:00.778Z,71.95
2023-03-05T08:01:29.106Z,72.50
2023-03-05T08:03:56.499Z,72.14
2023-03-05T08:06:23.869Z,71.61
2023-03-05T08:08:51.022Z,73.26
2023-03-05T08:11:18.214Z,71.14
2023-03-05T08:13:45.797Z,70.75
2023-03-05T08:16:15.953Z,71.11
2023-03-05T08:18:44.132Z,71.95
2023-03-05T08:21:22.301Z,71.16
2023-03-05T08:23:50.140Z,71.15
2023-03-05T08:26:20.777Z,71.08
2023-03-05T08:28:47.967Z,70.49
2023-03-05T08:31:17.018Z,70.34
2023-03-05T08:33:44.216Z,69.42
2023-03-05T08:36:11.341Z,70.70
2023-03-05T08:38:38.416Z,70.51
2023-03-05T08:41:06.277Z,70.16
2023-03-05T08:43:33.626Z,69.52
2023-03-05T08:46:02.193Z,70.93
2023-03-05T08:48:29.988Z,69.59
2023-03-05T08:50:57.106Z,70.62
2023-03-05T08:53:24.377Z,71.05
2023-03-05T08:55:55.780Z,70.55
2023-03-05T08:58:23.090Z,70.61
2023-03-05T09:00:50.430Z,70.69
2023-03-05T09:03:18.077Z,69.90
2023-03-05T09:05:45.257Z,69.84
2023-03-05T09:08:12.881Z,70.82
2023-03-05T09:10:42.804Z,69.63
2023-03-05T09:13:10.693Z,69.68
2023-03-05T09:15:38.599Z,68.06
2023-03-05T09:18:05.959Z,67.59
2023-03-05T09:20:34.054Z,65.29
2023-03-05T09:23:01.278Z,66.38
2023-03-05T09:25:28.421Z,65.05
2023-03-05T09:27:55.583Z,64.88
2023-03-05T09:30:22.856Z,64.47
2023-03-05T09:32:51.272Z,65.05
2023-03-05T09:35:18.503Z,64.94
2023-03-05T09:37:45.591Z,63.24
2023-03-05T09:40:17.238Z,62.08
2023-03-05T09:43:06.040Z,64.16
2023-03-05T10:18:05.945Z,61.78
2023-03-05T10:20:38.949Z,59.11
2023-03-05T10:23:08.767Z,58.54
2023-03-05T10:25:47.952Z,58.69
2023-03-05T10:28:36.479Z,57.49
2023-03-05T10:31:18.745Z,57.67
2023-03-05T10:33:59.429Z,57.05
2023-03-05T10:36:41.771Z,58.56
2023-03-05T10:39:40.516Z,59.02
2023-03-05T10:42:21.716Z,57.47
2023-03-05T10:44:54.976Z,58.66
2023-03-05T10:47:24.243Z,59.02
2023-03-05T10:49:54.653Z,58.86
2023-03-05T10:52:35.436Z,57.23
2023-03-05T10:55:13.286Z,59.06
2023-03-05T10:57:40.456Z,58.31
2023-03-05T11:00:13.814Z,58.00
2023-03-05T11:02:58.044Z,57.07
2023-03-05T11:05:47.626Z,58.25
2023-03-05T11:08:35.586Z,57.81
2023-03-05T11:11:20.854Z,57.79
2023-03-05T11:13:55.958Z,57.94
2023-03-05T11:16:25.044Z,57.87
2023-03-05T11:19:17.665Z,58.92
2023-03-05T11:21:46.691Z,58.20
2023-03-05T11:24:19.422Z,58.86
2023-03-05T11:26:47.465Z,58.13
2023-03-05T11:29:23.890Z,56.77
2023-03-05T11:31:51.953Z,55.92
2023-03-05T11:34:18.964Z,56.18
2023-03-05T11:36:55.733Z,56.09
2023-03-05T11:39:25.311Z,56.43
2023-03-05T11:41:54.229Z,55.76
2023-03-05T11:44:28.891Z,53.75
2023-03-05T11:47:17.503Z,54.13
2023-03-05T11:49:48.010Z,54.80
2023-03-05T11:52:32.316Z,54.84
2023-03-05T11:55:19.816Z,56.07
2023-03-05T11:57:50.683Z,55.09
2023-03-05T12:00:24.936Z,54.57
2023-03-05T12:02:56.589Z,54.31
2023-03-05T12:05:23.840Z,53.45
2023-03-05T12:07:55.553Z,54.86
2023-03-05T12:10:25.718Z,53.48
2023-03-05T12:13:23.825Z,52.82
2023-03-05T12:16:09.912Z,52.92
2023-03-05T12:18:55.178Z,51.59
2023-03-05T12:21:37.128Z,51.72
2023-03-05T12:24:27.344Z,52.95
2023-03-05T12:27:04.214Z,52.73
2023-03-05T12:29:31.469Z,51.25
2023-03-05T12:32:01.961Z,51.29
2023-03-05T12:34:40.959Z,51.04
2023-03-05T12:37:34.882Z,52.02
2023-03-05T12:40:12.822Z,51.01
2023-03-05T12:42:46.032Z,51.16
2023-03-05T12:45:14.553Z,51.15
2023-03-05T12:47:45.210Z,50.47
2023-03-05T12:50:27.185Z,49.96
2023-03-05T12:52:59.861Z,50.26
2023-03-05T12:55:47.717Z,50.43
2023-03-05T12:58:40.265Z,51.08
2023-03-05T13:01:25.936Z,51.03
2023-03-05T13:04:05.289Z,51.51
2023-03-05T13:06:35.698Z,51.37
2023-03-05T13:09:14.918Z,52.79
2023-03-05T13:11:45.454Z,52.47
2023-03-05T13:14:30.565Z,51.96
2023-03-05T13:16:58.314Z,52.64
2023-03-05T13:19:25.474Z,53.46
2023-03-05T13:22:00.751Z,53.48
2023-03-05T13:24:29.375Z,53.55
2023-03-05T13:26:56.981Z,54.49
2023-03-05T13:29:30.900Z,54.18
2023-03-05T13:32:01.907Z,53.92
2023-03-05T13:34:41.100Z,53.65
2023-03-05T13:37:22.505Z,53.03
2023-03-05T13:40:00.231Z,53.58
2023-03-05T13:42:34.749Z,54.82
2023-03-05T13:45:20.536Z,54.22
2023-03-05T13:47:55.191Z,55.87
2023-03-05T13:50:31.514Z,56.07
2023-03-05T13:53:19.471Z,55.82
2023-03-05T13:55:48.460Z,56.56
2023-03-05T13:58:40.874Z,56.61
2023-03-05T14:02:08.436Z,57.29
2023-03-05T14:04:54.410Z,58.17
2023-03-05T14:07:34.687Z,56.97
2023-03-05T14:10:03.307Z,57.87
2023-03-05T14:12:36.178Z,59.21
2023-03-05T14:15:16.901Z,60.18
2023-03-05T14:17:44.188Z,60.86
2023-03-05T14:20:14.243Z,60.35
2023-03-05T14:22:48.654Z,59.24
2023-03-05T14:25:39.798Z,59.31
2023-03-05T14:28:25.429Z,61.33
2023-03-05T14:30:55.992Z,62.34
2023-03-05T14:33:28.733Z,63.39
2023-03-05T14:35:57.961Z,64.37
2023-03-05T14:38:30.033Z,64.63
2023-03-05T14:40:57.657Z,64.90
2023-03-05T14:43:24.834Z,66.19
2023-03-05T14:45:51.962Z,66.80
2023-03-05T14:48:19.258Z,67.28
2023-03-05T14:50:53.209Z,67.53
2023-03-05T14:53:25.001Z,67.91
2023-03-05T14:55:57.748Z,67.62
2023-03-05T14:58:27.717Z,67.66
2023-03-05T15:00:55.706Z,68.23
2023-03-05T15:03:25.770Z,67.95
2023-03-05T15:05:55.711Z,69.84
2023-03-05T15:08:28.225Z,68.53
2023-03-05T15:10:56.241Z,68.98
2023-03-05T15:13:23.426Z,68.45
2023-03-05T15:15:52.675Z,68.57
2023-03-05T15:18:21.984Z,68.48
2023-03-05T15:20:52.088Z,67.72
2023-03-05T15:23:19.972Z,67.10
2023-03-05T15:25:47.449Z,67.16
2023-03-05T15:28:15.076Z,66.78
2023-03-05T15:30:46.405Z,67.48
2023-03-05T15:33:16.808Z,67.98
2023-03-05T15:35:44.332Z,68.96
2023-03-05T15:38:11.685Z,69.17
2023-03-05T15:40:38.737Z,68.14
2023-03-05T15:43:05.982Z,67.63
2023-03-05T15:45:33.818Z,67.43
2023-03-05T15:48:01.180Z,68.28
2023-03-05T15:50:28.294Z,68.90
2023-03-05T15:52:55.361Z,68.46
2023-03-05T15:55:22.466Z,68.91
2023-03-05T15:57:51.336Z,68.90
2023-03-05T16:00:26.157Z,68.00
2023-03-05T16:02:53.590Z,69.04
2023-03-05T16:05:20.737Z,68.42
2023-03-05T16:07:51.882Z,68.13
2023-03-05T16:10:22.963Z,68.72
2023-03-05T16:12:54.328Z,67.69
2023-03-05T16:15:22.514Z,66.80
2023-03-05T16:17:54.610Z,66.77
2023-03-05T16:20:22.455Z,67.10
2023-03-05T16:22:49.934Z,67.45
2023-03-05T16:25:17.860Z,67.97
2023-03-05T16:27:45.367Z,67.78
2023-03-05T16:30:15.499Z,68.29
2023-03-05T16:32:43.064Z,68.27
2023-03-05T16:35:12.493Z,67.35
2023-03-05T16:37:40.471Z,68.10
2023-03-05T16:40:10.342Z,70.15
2023-03-05T16:42:37.732Z,70.57
2023-03-05T16:45:06.736Z,71.47
2023-03-05T16:47:34.011Z,70.32
2023-03-05T16:50:01.196Z,69.89
2023-03-05T16:52:28.796Z,69.71
2023-03-05T16:54:56.182Z,69.90
2023-03-05T16:57:25.745Z,70.94
2023-03-05T16:59:54.319Z,71.29
2023-03-05T17:02:21.692Z,70.90
2023-03-05T17:04:50.497Z,72.14
2023-03-05T17:07:18.358Z,70.08
2023-03-05T17:09:47.978Z,70.63
2023-03-05T17:12:15.159Z,70.71
2023-03-05T17:14:42.251Z,71.97
2023-03-05T17:17:09.424Z,72.28
2023-03-05T17:19:37.120Z,72.07
2023-03-05T17:22:05.277Z,73.88
2023-03-05T17:24:33.688Z,74.97
2023-03-05T17:27:01.410Z,77.21
2023-03-05T17:29:29.546Z,76.00
2023-03-05T17:31:56.759Z,76.30
2023-03-05T17:34:35.648Z,76.91
2023-03-05T17:37:04.669Z,75.77
2023-03-05T17:39:31.759Z,78.25
2023-03-05T17:41:58.936Z,78.85
2023-03-05T17:44:26.097Z,80.23
2023-03-05T17:46:53.532Z,78.19
2023-03-05T17:49:20.834Z,78.61
2023-03-05T17:51:48.042Z,76.20
2023-03-05T17:54:15.245Z,76.55
2023-03-05T17:56:42.512Z,76.77
2023-03-05T17:59:10.060Z,79.89
2023-03-05T18:01:37.330Z,82.19
2023-03-05T18:04:04.786Z,80.09
2023-03-05T18:06:32.923Z,78.84
2023-03-05T18:09:00.013Z,78.00
2023-03-05T18:11:27.761Z,78.40
2023-03-05T18:13:54.959Z,77.82
2023-03-05T18:16:23.684Z,78.88
2023-03-05T18:18:51.792Z,82.67
2023-03-05T18:21:24.064Z,81.73
2023-03-05T18:23:51.751Z,81.00
2023-03-05T18:26:18.824Z,79.23
2023-03-05T18:28:46.041Z,78.94
2023-03-05T18:31:13.319Z,78.03
2023-03-05T18:33:40.879Z,78.07
2023-03-05T18:36:10.876Z,79.48
2023-03-05T18:38:38.688Z,79.07
2023-03-05T18:41:06.713Z,80.82
2023-03-05T18:43:34.395Z,82.27
2023-03-05T18:46:05.056Z,83.80
2023-03-05T18:48:32.340Z,85.41
2023-03-05T18:51:01.984Z,86.79
2023-03-05T18:53:29.351Z,87.84
2023-03-05T18:55:56.510Z,87.97
2023-03-05T18:58:25.918Z,87.61
2023-03-05T19:00:53.427Z,87.56
2023-03-05T19:03:22.591Z,88.41
2023-03-05T19:05:51.417Z,89.31
2023-03-05T19:08:18.636Z,90.23
2023-03-05T19:10:45.864Z,88.73
2023-03-05T19:13:40.137Z,89.15
2023-03-05T19:16:13.309Z,88.95
2023-03-05T19:19:09.227Z,88.79
2023-03-05T19:21:47.998Z,90.21
2023-03-05T19:24:16.160Z,89.80
2023-03-05T19:26:44.189Z,90.00
2023-03-05T19:29:12.147Z,89.85
2023-03-05T19:31:39.777Z,88.60
2023-03-05T19:34:07.004Z,88.10
2023-03-05T19:36:35.736Z,88.43
2023-03-05T19:39:04.977Z,89.19
2023-03-05T19:41:32.309Z,88.24
2023-03-05T19:43:59.534Z,88.46
2023-03-05T19:46:26.752Z,88.39
2023-03-05T19:48:53.884Z,88.67
2023-03-05T19:51:23.872Z,89.35
2023-03-05T19:53:51.804Z,89.46
2023-03-05T19:56:19.707Z,90.10
2023-03-05T19:58:49.162Z,90.42
2023-03-05T20:01:22.298Z,90.22
2023-03-05T20:03:51.649Z,90.74
2023-03-05T20:06:19.684Z,91.36
2023-03-05T20:08:46.861Z,91.46
2023-03-05T20:11:15.983Z,92.16
2023-03-05T20:13:43.800Z,92.15
2023-03-05T20:16:19.513Z,91.72
2023-03-05T20:18:47.369Z,91.28
2023-03-05T20:21:21.663Z,91.73
2023-03-05T20:23:50.629Z,91.90
2023-03-05T20:26:18.723Z,92.79
2023-03-05T20:28:46.250Z,92.24
2023-03-05T20:31:13.369Z,92.55
2023-03-05T20:33:40.481Z,91.30
2023-03-05T20:36:08.761Z,90.86
2023-03-05T20:38:35.808Z,92.10
2023-03-05T20:41:15.189Z,93.39
2023-03-05T20:43:45.049Z,93.62
2023-03-05T20:46:21.993Z,93.11
2023-03-05T20:48:51.198Z,92.84
2023-03-05T20:51:24.738Z,90.97
2023-03-05T20:53:54.419Z,91.82
2023-03-05T20:56:21.631Z,92.71
2023-03-05T20:58:48.679Z,92.46
2023-03-05T21:01:15.774Z,92.36
2023-03-05T21:03:42.918Z,92.42
2023-03-05T21:06:10.027Z,92.38
2023-03-05T21:08:37.099Z,92.87
2023-03-05T21:11:09.459Z,93.53
2023-03-05T21:13:37.395Z,94.77
2023-03-05T21:16:25.388Z,94.61
2023-03-05T21:18:52.830Z,95.52
2023-03-05T21:21:20.061Z,95.18
2023-03-05T21:23:47.439Z,94.89
2023-03-05T21:26:15.264Z,94.64
2023-03-05T21:28:42.923Z,95.31
2023-03-05T21:31:20.212Z,94.52
2023-03-05T21:33:47.586Z,94.24
2023-03-05T21:36:18.860Z,93.87
2023-03-05T21:38:50.218Z,93.68
2023-03-05T21:41:18.354Z,95.03
2023-03-05T21:43:45.564Z,94.93
2023-03-05T21:46:14.349Z,93.85
2023-03-05T21:48:41.444Z,93.84
2023-03-05T21:51:38.474Z,92.98
2023-03-05T21:54:18.976Z,93.79
2023-03-05T21:56:46.795Z,94.64
2023-03-05T21:59:14.035Z,95.03
2023-03-05T22:01:41.142Z,94.68
2023-03-05T22:04:08.267Z,95.05
2023-03-05T22:06:35.554Z,95.53
2023-03-05T22:09:02.673Z,95.27
2023-03-05T22:11:29.755Z,95.27
2023-03-05T22:13:57.159Z,94.50
2023-03-05T22:16:26.035Z,94.58
2023-03-05T22:18:53.626Z,93.78
2023-03-05T22:21:23.937Z,92.77
2023-03-05T22:23:51.103Z,91.74
2023-03-05T22:26:18.196Z,90.75
2023-03-05T22:28:45.446Z,90.50
2023-03-05T22:31:21.088Z,88.17
2023-03-05T22:33:48.585Z,86.08
2023-03-05T22:36:16.329Z,84.80
2023-03-05T22:38:43.576Z,84.05
2023-03-05T22:41:12.667Z,84.09
2023-03-05T22:43:40.560Z,84.45
2023-03-05T22:46:14.997Z,84.04
2023-03-05T22:48:42.354Z,83.20
2023-03-05T22:51:11.466Z,83.31
2023-03-05T22:53:39.603Z,83.45
2023-03-05T22:56:12.832Z,84.08
2023-03-05T22:58:40.413Z,84.70
2023-03-05T23:01:14.305Z,84.08
2023-03-05T23:04:02.347Z,83.96
2023-03-05T23:06:40.201Z,84.00
2023-03-05T23:09:07.349Z,84.61
2023-03-05T23:11:34.632Z,85.00
2023-03-05T23:14:01.770Z,84.61
2023-03-05T23:16:28.859Z,84.16
2023-03-05T23:18:56.275Z,83.98
2023-03-05T23:21:23.322Z,83.24
2023-03-05T23:23:50.577Z,83.30
2023-03-05T23:26:17.690Z,84.51
2023-03-05T23:28:44.775Z,84.27
2023-03-05T23:31:11.984Z,83.52
2023-03-05T23:33:39.181Z,82.63
2023-03-05T23:36:06.525Z,81.28
2023-03-05T23:38:33.785Z,79.98
2023-03-05T23:41:02.959Z,79.15
2023-03-05T23:43:30.817Z,78.65
2023-03-05T23:45:58.125Z,79.72
2023-03-05T23:48:26.769Z,79.55
2023-03-05T23:50:54.871Z,78.19
2023-03-05T23:53:24.831Z,77.96
2023-03-05T23:55:52.594Z,76.78
2023-03-05T23:58:20.684Z,77.61
